Spencer, NY (14883)

1:10 AM EST on January 30, 2015 (GMT -0500)
APRSWXNET Spencer NY US | Change Station
CLOSE
Current Station
Personal Weather Station
Location: Spencer, NY
Elevation: 1131 ft
Nearby Weather Stations

Elev 1131 ft 42.22 °N, 76.42 °W | Updated 40 minutes ago

Overcast
Overcast
25 °F
Feels Like 25 °F
N
0
Wind Variable Wind from WSW
Gusts 0.0 mph

Today
High -- | Low -- °F
--% Chance of Precip.
Yesterday
High -- | Low -- °F
Precip. -- in
7:21 AM 5:17 PM
Waxing Gibbous, 80% visible
Pressure 29.84 in
Visibility 4.0 miles
Clouds Mostly Cloudy 1500 ft
Mostly Cloudy 2300 ft
Overcast 2700 ft
Windchill 25 °F
Dew Point 22 °F
Humidity 90%
Rainfall 0.00 in
Snow Depth Not available.
UV 0 out of 12
Pollen .10 out of 12
Air Quality Not available.
Flu Activity Not available.
METAR KITH 300556Z AUTO 19009KT 4SM -SN BR BKN015 BKN023 OVC027 M03/M05 A2980 RMK AO2 56006 60001 T10331050 11027 21033 BKN V OVC P0000 SLP105

More Conditions Fewer Conditions

Pressure 29.84 in
Visibility 4.0 miles
Clouds Mostly Cloudy 1500 ft
Mostly Cloudy 2300 ft
Overcast 2700 ft
Windchill 25 °F
Dew Point 22 °F
Humidity 90%
Rainfall 0.00 in
Snow Depth Not available.
UV 0 out of 12
Pollen .10 out of 12
Air Quality Not available.
Flu Activity Not available.
METAR KITH 300556Z AUTO 19009KT 4SM -SN BR BKN015 BKN023 OVC027 M03/M05 A2980 RMK AO2 56006 60001 T10331050 11027 21033 BKN V OVC P0000 SLP105

More Conditions Fewer Conditions

Nowcast | as of 10:17 PM EST on January 29, 2015

Snow showers will be over the region through 2 am...with additional accumulations of an inch or less.

×

10-Day Weather Forecast

Almanac

Astronomy

Jan. 30, 2015 Rise Set
Actual Time
Civil Twilight
Nautical Twilight
Astronomical Twilight
Moon
Length of Visible Light
Length of Day
Tomorrow will be .
, % of the Moon is Illuminated

Today's Extremes

State Highs State Lows

Community

WunderPhotos

Upload Photos

1,791,720 photos uploaded!

WunderBlogs® & News

Nearby

Air Quality

  Air Quality AQ Index Pollutant
Not available.

Snow Depth

Station Depth Elevation

Earthquake Activity

City Distance Mag. Time & Date
Minimum magnitude displayed is 2.5.

Coastal Water Temperatures

Place Temperature

Nearby Weather Stations